Time;durP1;ratioP1;P1;durP2;ratioP2;P2;SDS_P1;SDS_P2;PMS_P1;PMS_P2;Temp;Humidity;BMP_temperature;BMP_pressure;BME280_temperature;BME280_humidity;BME280_pressure;Samples;Min_cycle;Max_cycle;Signal;HPM_P1;HPM_P2
2023/05/05 00:01:31;;;;;;;;;;;14.50;84.10;;;;;;4857940;29;19970;-79
2023/05/05 00:03:58;;;;;;;;;;;14.40;84.30;;;;;;4866109;29;19934;-79
2023/05/05 00:06:27;;;;;;;;;;;14.40;84.20;;;;;;4867049;29;20285;-79
2023/05/05 00:08:55;;;;;;;;;;;14.40;84.20;;;;;;4874116;29;19936;-77
2023/05/05 00:11:22;;;;;;;;;;;14.40;84.80;;;;;;4872959;29;19934;-79
2023/05/05 00:13:49;;;;;;;;;;;14.40;84.50;;;;;;4857759;29;19928;-79
2023/05/05 00:16:16;;;;;;;;;;;14.40;84.60;;;;;;4854223;29;19932;-79
2023/05/05 00:18:43;;;;;;;;;;;14.40;84.80;;;;;;4864693;29;19932;-79
2023/05/05 00:21:10;;;;;;;;;;;14.40;84.60;;;;;;4880456;29;19938;-79
2023/05/05 00:23:37;;;;;;;;;;;14.30;85.00;;;;;;4872178;29;22653;-79
2023/05/05 00:26:05;;;;;;;;;;;14.30;85.40;;;;;;4856687;29;19935;-79
2023/05/05 00:28:32;;;;;;;;;;;14.30;85.10;;;;;;4872762;29;20007;-79
2023/05/05 00:30:59;;;;;;;;;;;14.20;85.60;;;;;;4879149;29;19939;-79
2023/05/05 00:33:26;;;;;;;;;;;14.20;86.00;;;;;;4861731;29;19936;-79
2023/05/05 00:35:53;;;;;;;;;;;14.20;86.60;;;;;;4875428;29;20347;-79
2023/05/05 00:38:20;;;;;;;;;;;14.20;87.40;;;;;;4853203;29;19935;-79
2023/05/05 00:40:48;;;;;;;;;;;14.10;86.60;;;;;;4848733;29;19966;-79
2023/05/05 00:43:15;;;;;;;;;;;14.10;86.40;;;;;;4869443;29;19938;-79
2023/05/05 00:45:46;;;;;;;;;;;14.10;87.10;;;;;;4880053;29;19942;-79
2023/05/05 00:48:13;;;;;;;;;;;14.00;86.90;;;;;;4857660;29;19942;-79
2023/05/05 00:50:42;;;;;;;;;;;14.00;87.10;;;;;;4865782;29;19942;-79
2023/05/05 00:53:08;;;;;;;;;;;14.00;87.00;;;;;;4871437;29;19935;-80
2023/05/05 00:55:35;;;;;;;;;;;14.00;87.00;;;;;;4871916;29;19935;-79
2023/05/05 00:58:05;;;;;;;;;;;14.00;87.00;;;;;;4878239;29;19936;-79
2023/05/05 01:00:32;;;;;;;;;;;14.00;87.20;;;;;;4874052;29;19942;-79
2023/05/05 01:02:59;;;;;;;;;;;13.90;87.70;;;;;;4881058;29;19991;-79
2023/05/05 01:05:31;;;;;;;;;;;13.90;87.70;;;;;;4865310;29;19927;-80
2023/05/05 01:08:14;;;;;;;;;;;13.80;87.90;;;;;;4877776;29;19936;-80
2023/05/05 01:10:45;;;;;;;;;;;13.80;87.70;;;;;;4878725;29;20018;-79
2023/05/05 01:13:31;;;;;;;;;;;13.70;88.50;;;;;;4871189;29;19932;-79
2023/05/05 01:15:58;;;;;;;;;;;13.70;88.60;;;;;;4865613;29;19928;-79
2023/05/05 01:18:26;;;;;;;;;;;13.60;88.70;;;;;;4865190;29;19928;-80
2023/05/05 01:20:56;;;;;;;;;;;13.60;88.50;;;;;;4855981;29;20392;-80
2023/05/05 01:23:26;;;;;;;;;;;14.00;88.80;;;;;;4879232;29;20014;-80
2023/05/05 01:26:06;;;;;;;;;;;13.50;89.00;;;;;;4871346;29;19931;-80
2023/05/05 01:28:52;;;;;;;;;;;13.30;89.80;;;;;;4880671;29;19976;-80
2023/05/05 01:31:38;;;;;;;;;;;13.20;90.50;;;;;;4849810;29;19928;-80
2023/05/05 01:34:06;;;;;;;;;;;13.30;90.70;;;;;;4856971;29;22641;-80
2023/05/05 01:36:38;;;;;;;;;;;13.30;90.60;;;;;;4883776;29;20877;-80
2023/05/05 01:39:07;;;;;;;;;;;13.30;90.90;;;;;;4856163;29;19957;-80
2023/05/05 01:41:39;;;;;;;;;;;13.20;91.00;;;;;;4868450;29;20302;-80
2023/05/05 01:44:08;;;;;;;;;;;13.10;91.30;;;;;;4853329;29;20374;-80
2023/05/05 01:46:35;;;;;;;;;;;13.10;91.40;;;;;;4873647;29;19983;-80
2023/05/05 01:49:03;;;;;;;;;;;13.10;91.40;;;;;;4866959;29;20829;-80
2023/05/05 01:51:31;;;;;;;;;;;13.00;91.30;;;;;;4860649;29;19931;-80
2023/05/05 01:53:59;;;;;;;;;;;13.00;91.70;;;;;;4877353;29;19928;-80
2023/05/05 01:56:28;;;;;;;;;;;13.00;91.90;;;;;;4881738;29;19965;-80
2023/05/05 01:58:56;;;;;;;;;;;13.00;91.80;;;;;;4879788;29;19932;-80
2023/05/05 02:01:24;;;;;;;;;;;12.90;91.70;;;;;;4881394;29;19955;-80
2023/05/05 02:03:53;;;;;;;;;;;12.90;91.80;;;;;;4873060;29;20320;-80
2023/05/05 02:06:21;;;;;;;;;;;12.90;92.10;;;;;;4876272;29;20026;-80
2023/05/05 02:08:49;;;;;;;;;;;12.80;92.40;;;;;;4882564;29;19935;-79
2023/05/05 02:11:17;;;;;;;;;;;12.80;92.40;;;;;;4858992;29;19936;-79
2023/05/05 02:13:44;;;;;;;;;;;12.80;92.10;;;;;;4880431;29;20394;-80
2023/05/05 02:16:15;;;;;;;;;;;12.80;92.50;;;;;;4887103;29;20745;-80
2023/05/05 02:18:44;;;;;;;;;;;12.70;92.40;;;;;;4876833;29;19934;-80
2023/05/05 02:21:13;;;;;;;;;;;12.70;92.80;;;;;;4876536;29;19932;-80
2023/05/05 02:23:40;;;;;;;;;;;12.70;92.80;;;;;;4861795;29;19928;-80
2023/05/05 02:26:08;;;;;;;;;;;12.60;93.10;;;;;;4868971;29;19928;-80
2023/05/05 02:28:45;;;;;;;;;;;12.60;93.30;;;;;;4866505;29;19933;-79
2023/05/05 02:31:12;;;;;;;;;;;12.60;93.60;;;;;;4867741;29;19928;-79
2023/05/05 02:33:40;;;;;;;;;;;12.50;93.60;;;;;;4869779;29;19934;-79
2023/05/05 02:36:14;;;;;;;;;;;12.50;93.60;;;;;;4873405;29;19964;-79
2023/05/05 02:38:54;;;;;;;;;;;12.50;93.60;;;;;;4866175;29;19943;-79
2023/05/05 02:41:24;;;;;;;;;;;12.40;94.00;;;;;;4868537;29;20019;-79
2023/05/05 02:43:53;;;;;;;;;;;12.40;94.30;;;;;;4851446;29;19934;-79
2023/05/05 02:46:21;;;;;;;;;;;12.40;94.70;;;;;;4865724;29;20022;-79
2023/05/05 02:48:48;;;;;;;;;;;12.30;94.80;;;;;;4875766;29;19927;-80
2023/05/05 02:51:15;;;;;;;;;;;12.30;94.80;;;;;;4873111;29;20695;-79
2023/05/05 02:53:42;;;;;;;;;;;12.30;94.70;;;;;;4876258;29;20018;-80
2023/05/05 02:56:22;;;;;;;;;;;12.30;94.70;;;;;;4872952;29;22182;-80
2023/05/05 02:58:54;;;;;;;;;;;12.30;95.00;;;;;;4873508;29;19928;-80
2023/05/05 03:01:27;;;;;;;;;;;12.20;95.20;;;;;;4876433;29;19927;-80
2023/05/05 03:04:06;;;;;;;;;;;12.30;95.10;;;;;;4860904;29;19971;-80
2023/05/05 03:06:41;;;;;;;;;;;12.20;95.00;;;;;;4878477;29;19935;-79
2023/05/05 03:09:13;;;;;;;;;;;12.20;95.00;;;;;;4870095;29;20287;-80
2023/05/05 03:11:49;;;;;;;;;;;12.20;95.40;;;;;;4874389;29;20022;-80
2023/05/05 03:14:18;;;;;;;;;;;12.10;95.40;;;;;;4880929;29;19931;-80
2023/05/05 03:16:48;;;;;;;;;;;12.20;95.20;;;;;;4868254;29;19928;-80
2023/05/05 03:19:17;;;;;;;;;;;12.20;95.10;;;;;;4870904;29;19987;-80
2023/05/05 03:21:46;;;;;;;;;;;12.10;95.10;;;;;;4884397;29;19936;-80
2023/05/05 03:24:17;;;;;;;;;;;12.00;95.50;;;;;;4872685;29;19942;-80
2023/05/05 03:26:52;;;;;;;;;;;12.10;95.80;;;;;;4873952;29;19934;-80
2023/05/05 03:29:24;;;;;;;;;;;12.00;95.80;;;;;;4880598;29;19939;-79
2023/05/05 03:31:52;;;;;;;;;;;12.00;95.90;;;;;;4853328;29;20335;-80
2023/05/05 03:34:19;;;;;;;;;;;12.00;96.10;;;;;;4865139;29;22552;-80
2023/05/05 03:36:47;;;;;;;;;;;12.00;96.50;;;;;;4852121;29;20478;-80
2023/05/05 03:39:15;;;;;;;;;;;12.00;96.60;;;;;;4872114;29;19935;-80
2023/05/05 03:41:42;;;;;;;;;;;11.90;96.80;;;;;;4867626;29;19936;-80
2023/05/05 03:44:11;;;;;;;;;;;12.00;96.80;;;;;;4881990;29;19927;-79
2023/05/05 03:46:38;;;;;;;;;;;12.00;97.00;;;;;;4883592;29;19931;-79
2023/05/05 03:49:08;;;;;;;;;;;12.00;97.10;;;;;;4865146;29;19939;-79
2023/05/05 03:51:37;;;;;;;;;;;11.90;97.50;;;;;;4858121;29;20051;-79
2023/05/05 03:54:04;;;;;;;;;;;11.90;97.70;;;;;;4856278;29;19934;-80
2023/05/05 03:56:31;;;;;;;;;;;12.00;97.90;;;;;;4872543;29;19936;-80
2023/05/05 03:58:58;;;;;;;;;;;12.00;97.70;;;;;;4867393;29;19939;-80
2023/05/05 04:01:28;;;;;;;;;;;12.00;97.90;;;;;;4869969;29;19938;-80
2023/05/05 04:03:56;;;;;;;;;;;12.00;98.20;;;;;;4886578;29;19936;-79
2023/05/05 04:06:23;;;;;;;;;;;12.00;98.20;;;;;;4881814;29;19928;-80
2023/05/05 04:08:50;;;;;;;;;;;12.10;98.00;;;;;;4886128;29;19966;-80
2023/05/05 04:11:17;;;;;;;;;;;12.10;98.20;;;;;;4874898;29;19932;-80
2023/05/05 04:13:45;;;;;;;;;;;12.20;98.30;;;;;;4855420;29;20467;-79
2023/05/05 04:16:12;;;;;;;;;;;12.20;97.90;;;;;;4864030;29;19934;-79
2023/05/05 04:18:39;;;;;;;;;;;12.30;97.40;;;;;;4858067;29;19928;-79
2023/05/05 04:21:07;;;;;;;;;;;12.30;97.10;;;;;;4872103;29;19984;-80
2023/05/05 04:23:34;;;;;;;;;;;12.30;97.10;;;;;;4855255;29;20031;-79
2023/05/05 04:26:01;;;;;;;;;;;12.40;96.20;;;;;;4879087;29;20018;-79
2023/05/05 04:28:28;;;;;;;;;;;12.50;97.10;;;;;;4877178;29;19928;-80
2023/05/05 04:30:55;;;;;;;;;;;12.50;97.10;;;;;;4850771;29;19942;-80
2023/05/05 04:33:22;;;;;;;;;;;12.60;97.40;;;;;;4869032;29;19928;-80
2023/05/05 04:35:49;;;;;;;;;;;12.00;96.40;;;;;;4866670;29;20339;-80
2023/05/05 04:38:18;;;;;;;;;;;12.60;96.00;;;;;;4856941;29;19927;-80
2023/05/05 04:40:45;;;;;;;;;;;12.60;95.60;;;;;;4881185;29;20403;-80
2023/05/05 04:43:12;;;;;;;;;;;12.70;95.70;;;;;;4874616;29;19936;-80
2023/05/05 04:45:40;;;;;;;;;;;12.70;95.80;;;;;;4872221;29;20427;-80
2023/05/05 04:48:07;;;;;;;;;;;12.80;96.50;;;;;;4860802;29;20054;-80
2023/05/05 04:50:35;;;;;;;;;;;12.80;96.70;;;;;;4880529;29;19935;-80
2023/05/05 04:53:02;;;;;;;;;;;12.90;97.10;;;;;;4856334;29;19934;-80
2023/05/05 04:55:29;;;;;;;;;;;13.00;96.20;;;;;;4869206;29;20368;-80
2023/05/05 04:57:56;;;;;;;;;;;12.30;96.00;;;;;;4870040;29;22994;-80
2023/05/05 05:00:23;;;;;;;;;;;13.00;95.20;;;;;;4856813;29;20471;-80
2023/05/05 05:02:52;;;;;;;;;;;13.10;94.90;;;;;;4855172;29;20364;-80
2023/05/05 05:05:20;;;;;;;;;;;13.10;94.70;;;;;;4871390;29;19928;-80
2023/05/05 05:07:47;;;;;;;;;;;13.20;94.30;;;;;;4864202;29;19974;-80
2023/05/05 05:10:14;;;;;;;;;;;13.20;94.50;;;;;;4872318;29;25181;-80
2023/05/05 05:12:41;;;;;;;;;;;13.30;93.60;;;;;;4872069;29;20754;-80
2023/05/05 05:15:09;;;;;;;;;;;13.30;93.40;;;;;;4860888;29;19984;-80
2023/05/05 05:17:36;;;;;;;;;;;13.30;92.90;;;;;;4868218;29;19932;-79
2023/05/05 05:20:04;;;;;;;;;;;13.30;92.60;;;;;;4877128;29;19983;-79
2023/05/05 05:22:33;;;;;;;;;;;13.40;92.30;;;;;;4876307;29;20045;-80
2023/05/05 05:25:01;;;;;;;;;;;13.40;91.70;;;;;;4874485;29;19951;-79
2023/05/05 05:27:28;;;;;;;;;;;13.50;91.40;;;;;;4858868;29;20818;-80
2023/05/05 05:29:55;;;;;;;;;;;13.60;91.70;;;;;;4870859;29;19931;-80
2023/05/05 05:32:23;;;;;;;;;;;13.70;90.60;;;;;;4859931;29;19931;-80
2023/05/05 05:34:50;;;;;;;;;;;13.80;90.40;;;;;;4857097;29;19991;-79
2023/05/05 05:37:17;;;;;;;;;;;14.00;90.30;;;;;;4875431;29;20023;-80
2023/05/05 05:39:50;;;;;;;;;;;14.10;89.40;;;;;;4879992;29;20026;-79
2023/05/05 05:42:17;;;;;;;;;;;14.20;88.30;;;;;;4856246;29;19954;-80
2023/05/05 05:44:44;;;;;;;;;;;14.40;87.40;;;;;;4879932;29;19928;-79
2023/05/05 05:47:11;;;;;;;;;;;14.60;87.80;;;;;;4875122;29;19943;-79
2023/05/05 05:49:39;;;;;;;;;;;14.60;85.60;;;;;;4870793;29;19943;-79
2023/05/05 05:52:06;;;;;;;;;;;14.70;85.60;;;;;;4874281;29;19928;-79
2023/05/05 05:54:34;;;;;;;;;;;14.90;85.80;;;;;;4866667;29;20926;-79
2023/05/05 05:57:02;;;;;;;;;;;15.00;85.10;;;;;;4854125;29;20014;-79
2023/05/05 05:59:29;;;;;;;;;;;15.10;83.90;;;;;;4887187;29;19984;-79
2023/05/05 06:01:57;;;;;;;;;;;15.30;83.20;;;;;;4867126;29;20451;-79
2023/05/05 06:04:24;;;;;;;;;;;15.50;82.50;;;;;;4854850;29;20387;-79
2023/05/05 06:06:55;;;;;;;;;;;15.50;82.10;;;;;;4873030;29;19939;-79
2023/05/05 06:09:24;;;;;;;;;;;15.60;82.70;;;;;;4871000;29;19928;-79
2023/05/05 06:11:52;;;;;;;;;;;15.80;82.20;;;;;;4868096;29;19934;-79
2023/05/05 06:14:20;;;;;;;;;;;15.90;82.90;;;;;;4873981;29;20766;-79
2023/05/05 06:16:47;;;;;;;;;;;16.00;81.30;;;;;;4857311;29;19935;-78
2023/05/05 06:19:18;;;;;;;;;;;15.80;81.70;;;;;;4854398;29;20695;-79
2023/05/05 06:21:45;;;;;;;;;;;16.00;82.80;;;;;;4851244;29;20075;-80
2023/05/05 06:24:12;;;;;;;;;;;16.10;80.80;;;;;;4875497;29;19943;-80
2023/05/05 06:26:39;;;;;;;;;;;16.20;80.30;;;;;;4870997;29;19943;-80
2023/05/05 06:29:06;;;;;;;;;;;16.30;79.70;;;;;;4851847;29;19928;-79
2023/05/05 06:31:35;;;;;;;;;;;16.30;80.30;;;;;;4871152;29;19928;-77
2023/05/05 06:34:02;;;;;;;;;;;16.50;80.30;;;;;;4851359;29;19935;-78
2023/05/05 06:36:29;;;;;;;;;;;16.60;80.40;;;;;;4886576;29;19932;-79
2023/05/05 06:38:56;;;;;;;;;;;16.70;80.30;;;;;;4881736;29;22554;-78
2023/05/05 06:41:23;;;;;;;;;;;16.80;80.30;;;;;;4876678;29;20292;-78
2023/05/05 06:43:49;;;;;;;;;;;16.90;79.10;;;;;;4862279;29;19928;-80
2023/05/05 06:46:16;;;;;;;;;;;17.00;78.00;;;;;;4869637;29;20014;-78
2023/05/05 06:48:44;;;;;;;;;;;17.20;78.30;;;;;;4874666;29;21554;-78
2023/05/05 06:51:11;;;;;;;;;;;17.30;76.90;;;;;;4873715;29;20410;-79
2023/05/05 06:53:38;;;;;;;;;;;17.30;76.70;;;;;;4865636;29;19943;-78
2023/05/05 06:56:05;;;;;;;;;;;17.30;76.30;;;;;;4857634;29;22665;-79
2023/05/05 06:58:32;;;;;;;;;;;17.40;76.50;;;;;;4867088;29;19953;-80
2023/05/05 07:00:59;;;;;;;;;;;17.40;76.20;;;;;;4874817;29;19935;-80
2023/05/05 07:03:26;;;;;;;;;;;17.60;75.30;;;;;;4853404;29;19927;-78
2023/05/05 07:05:53;;;;;;;;;;;17.70;76.00;;;;;;4873245;29;19967;-79
2023/05/05 07:08:20;;;;;;;;;;;17.80;74.70;;;;;;4872243;29;20887;-79
2023/05/05 07:10:48;;;;;;;;;;;18.00;76.10;;;;;;4867609;29;19935;-78
2023/05/05 07:13:16;;;;;;;;;;;18.10;74.40;;;;;;4871016;29;19927;-78
2023/05/05 07:15:45;;;;;;;;;;;18.20;73.80;;;;;;4868465;29;22639;-80
2023/05/05 07:18:12;;;;;;;;;;;18.30;74.20;;;;;;4874771;29;20031;-78
2023/05/05 07:20:39;;;;;;;;;;;18.50;73.70;;;;;;4872238;29;19957;-79
2023/05/05 07:23:06;;;;;;;;;;;18.60;72.80;;;;;;4876367;29;20027;-79
2023/05/05 07:25:34;;;;;;;;;;;18.60;73.70;;;;;;4869514;29;19976;-78
2023/05/05 07:28:03;;;;;;;;;;;18.80;72.50;;;;;;4859813;29;20034;-80
2023/05/05 07:30:30;;;;;;;;;;;18.70;72.80;;;;;;4870715;29;19935;-78
2023/05/05 07:32:57;;;;;;;;;;;18.90;72.50;;;;;;4869057;29;19936;-79
2023/05/05 07:35:24;;;;;;;;;;;18.90;73.70;;;;;;4846543;29;19953;-79
2023/05/05 07:37:51;;;;;;;;;;;19.10;72.80;;;;;;4882306;29;19931;-78
2023/05/05 07:40:18;;;;;;;;;;;19.20;72.20;;;;;;4877485;29;19935;-78
2023/05/05 07:42:46;;;;;;;;;;;19.20;72.00;;;;;;4864966;29;19927;-79
2023/05/05 07:45:13;;;;;;;;;;;19.10;71.20;;;;;;4868342;29;19931;-78
2023/05/05 07:47:40;;;;;;;;;;;19.10;72.20;;;;;;4859447;29;19935;-79
2023/05/05 07:50:07;;;;;;;;;;;19.10;71.60;;;;;;4883639;29;19935;-79
2023/05/05 07:52:34;;;;;;;;;;;19.10;72.20;;;;;;4852755;29;19992;-79
2023/05/05 07:55:17;;;;;;;;;;;19.30;71.60;;;;;;4870498;29;19939;-78
2023/05/05 07:57:44;;;;;;;;;;;19.40;71.10;;;;;;4870873;29;20050;-79
2023/05/05 08:00:12;;;;;;;;;;;19.30;71.90;;;;;;4868628;29;19935;-77
2023/05/05 08:02:39;;;;;;;;;;;19.60;72.20;;;;;;4869906;29;19936;-79
2023/05/05 08:05:07;;;;;;;;;;;19.60;72.00;;;;;;4859474;29;20022;-79
2023/05/05 08:07:39;;;;;;;;;;;19.70;72.50;;;;;;4863113;29;20412;-79
2023/05/05 08:10:09;;;;;;;;;;;19.70;70.90;;;;;;4854080;29;19936;-79
2023/05/05 08:12:38;;;;;;;;;;;19.50;70.60;;;;;;4873245;29;21632;-79
2023/05/05 08:15:05;;;;;;;;;;;19.60;71.60;;;;;;4860159;29;19934;-79
2023/05/05 08:17:46;;;;;;;;;;;19.60;70.10;;;;;;4872951;29;19944;-78
2023/05/05 08:20:13;;;;;;;;;;;19.70;70.60;;;;;;4881187;29;19932;-78
2023/05/05 08:22:41;;;;;;;;;;;19.90;71.60;;;;;;4880358;29;19928;-79
2023/05/05 08:25:11;;;;;;;;;;;19.80;70.30;;;;;;4876176;29;19928;-78
2023/05/05 08:27:39;;;;;;;;;;;20.00;71.00;;;;;;4873872;29;19936;-79
2023/05/05 08:30:08;;;;;;;;;;;19.60;69.80;;;;;;4867480;29;19951;-80
2023/05/05 08:32:35;;;;;;;;;;;19.80;70.60;;;;;;4875525;29;20388;-79
2023/05/05 08:35:02;;;;;;;;;;;19.90;70.50;;;;;;4861177;29;19928;-79
2023/05/05 08:37:29;;;;;;;;;;;19.80;69.80;;;;;;4866212;29;19935;-80
2023/05/05 08:39:56;;;;;;;;;;;19.70;70.10;;;;;;4863902;29;19942;-79
2023/05/05 08:42:24;;;;;;;;;;;19.70;71.00;;;;;;4858716;29;20026;-79
2023/05/05 08:45:03;;;;;;;;;;;20.10;71.90;;;;;;4850558;29;20030;-79
2023/05/05 08:47:31;;;;;;;;;;;20.20;70.70;;;;;;4869299;29;22572;-78
2023/05/05 08:49:58;;;;;;;;;;;20.30;70.30;;;;;;4852108;29;19931;-79
2023/05/05 08:52:27;;;;;;;;;;;20.50;70.70;;;;;;4871947;29;19932;-80
2023/05/05 08:54:58;;;;;;;;;;;20.30;69.30;;;;;;4883432;29;19927;-79
2023/05/05 08:57:34;;;;;;;;;;;20.10;70.40;;;;;;4851329;29;19991;-79
2023/05/05 09:00:02;;;;;;;;;;;20.40;72.50;;;;;;4866060;29;19955;-79
2023/05/05 09:02:30;;;;;;;;;;;20.70;72.30;;;;;;4869802;29;20414;-80
2023/05/05 09:04:59;;;;;;;;;;;20.80;71.50;;;;;;4858997;29;19959;-80
2023/05/05 09:07:26;;;;;;;;;;;20.80;71.20;;;;;;4880146;29;19928;-79
2023/05/05 09:09:53;;;;;;;;;;;20.80;70.80;;;;;;4859895;29;19928;-79
2023/05/05 09:12:20;;;;;;;;;;;20.80;71.00;;;;;;4856092;29;19951;-79
2023/05/05 09:14:47;;;;;;;;;;;20.90;71.20;;;;;;4867693;29;19928;-79
2023/05/05 09:17:43;;;;;;;;;;;20.50;70.30;;;;;;4869667;29;20023;-80
2023/05/05 09:20:13;;;;;;;;;;;20.50;69.90;;;;;;4866049;29;20478;-80
2023/05/05 09:22:44;;;;;;;;;;;20.70;71.40;;;;;;4872524;29;19936;-80
2023/05/05 09:25:12;;;;;;;;;;;20.80;69.80;;;;;;4880558;29;20019;-80
2023/05/05 09:27:46;;;;;;;;;;;20.80;69.80;;;;;;4866052;29;19940;-80
2023/05/05 09:30:22;;;;;;;;;;;21.00;70.40;;;;;;4883612;29;19928;-80
2023/05/05 09:32:50;;;;;;;;;;;21.10;70.50;;;;;;4856872;29;20771;-79
2023/05/05 09:35:18;;;;;;;;;;;20.80;69.40;;;;;;4870901;29;19972;-80
2023/05/05 09:37:45;;;;;;;;;;;21.00;69.70;;;;;;4870485;29;20539;-79
2023/05/05 09:40:13;;;;;;;;;;;21.00;68.90;;;;;;4849069;29;19935;-80
2023/05/05 09:42:41;;;;;;;;;;;20.70;67.60;;;;;;4866371;29;20011;-80
2023/05/05 09:45:18;;;;;;;;;;;21.10;69.60;;;;;;4870852;23;20027;-80
2023/05/05 09:47:45;;;;;;;;;;;21.40;68.90;;;;;;4853616;29;19928;-79
2023/05/05 09:52:59;;;;;;;;;;;21.50;67.20;;;;;;4848353;29;19928;-79
2023/05/05 09:55:27;;;;;;;;;;;21.50;67.50;;;;;;4848147;29;19932;-79
2023/05/05 09:57:54;;;;;;;;;;;21.20;67.10;;;;;;4846116;29;19936;-79
2023/05/05 10:00:36;;;;;;;;;;;21.10;67.40;;;;;;4863431;29;19929;-79
2023/05/05 10:03:03;;;;;;;;;;;21.10;67.50;;;;;;4864428;29;19992;-79
2023/05/05 10:05:30;;;;;;;;;;;21.00;69.00;;;;;;4848848;29;19943;-79
2023/05/05 10:08:11;;;;;;;;;;;21.10;67.80;;;;;;4862951;29;19935;-79
2023/05/05 10:10:53;;;;;;;;;;;21.10;67.30;;;;;;4852682;29;19988;-78
2023/05/05 10:13:21;;;;;;;;;;;20.70;67.10;;;;;;4862114;29;20047;-78
2023/05/05 10:15:50;;;;;;;;;;;20.70;67.20;;;;;;4854811;29;19943;-79
2023/05/05 10:18:24;;;;;;;;;;;20.90;67.10;;;;;;4864332;29;19939;-79
2023/05/05 10:20:58;;;;;;;;;;;21.00;67.30;;;;;;4855443;29;19936;-78
2023/05/05 10:23:27;;;;;;;;;;;21.30;66.80;;;;;;4855128;29;19992;-79
2023/05/05 10:26:02;;;;;;;;;;;21.40;66.20;;;;;;4854501;29;19928;-78
2023/05/05 10:28:53;;;;;;;;;;;21.20;64.80;;;;;;4862938;29;19929;-79
2023/05/05 10:31:23;;;;;;;;;;;21.20;65.50;;;;;;4862899;29;20405;-79
2023/05/05 10:33:56;;;;;;;;;;;21.10;66.10;;;;;;4864413;29;19996;-79
2023/05/05 10:36:24;;;;;;;;;;;21.60;69.00;;;;;;4864472;29;20023;-79
2023/05/05 10:38:58;;;;;;;;;;;21.70;66.50;;;;;;4850389;29;19968;-78
2023/05/05 10:41:29;;;;;;;;;;;21.70;64.80;;;;;;4868060;29;19939;-78
2023/05/05 10:43:57;;;;;;;;;;;21.60;64.50;;;;;;4864008;29;19956;-79
2023/05/05 10:46:26;;;;;;;;;;;21.60;64.90;;;;;;4859332;29;19928;-79
2023/05/05 10:48:55;;;;;;;;;;;21.80;63.70;;;;;;5001848;23;19962;-79
2023/05/05 10:51:37;;;;;;;;;;;21.90;63.10;;;;;;4864991;29;19928;-79
2023/05/05 10:54:09;;;;;;;;;;;22.00;63.70;;;;;;4881874;29;19932;-79
2023/05/05 10:56:42;;;;;;;;;;;21.90;63.80;;;;;;4857945;29;19936;-80
2023/05/05 10:59:30;;;;;;;;;;;21.80;63.80;;;;;;4836136;29;23568;-79
2023/05/05 11:01:57;;;;;;;;;;;21.80;63.80;;;;;;4851621;29;19932;-79
2023/05/05 11:04:24;;;;;;;;;;;21.60;64.00;;;;;;4860536;29;19971;-80
2023/05/05 11:07:07;;;;;;;;;;;21.90;64.60;;;;;;4869390;29;19956;-79
2023/05/05 11:09:52;;;;;;;;;;;22.00;64.20;;;;;;4831685;29;20399;-79
2023/05/05 11:12:19;;;;;;;;;;;22.00;64.30;;;;;;4855972;29;19936;-80
2023/05/05 11:15:12;;;;;;;;;;;22.20;64.40;;;;;;4830575;29;19959;-79
2023/05/05 11:17:44;;;;;;;;;;;22.40;65.20;;;;;;4830070;29;22710;-79
2023/05/05 11:20:11;;;;;;;;;;;22.40;63.50;;;;;;4853787;29;19976;-79
2023/05/05 11:22:57;;;;;;;;;;;22.30;62.70;;;;;;4857384;29;19935;-79
2023/05/05 11:25:33;;;;;;;;;;;22.40;63.90;;;;;;4832860;29;19937;-79
2023/05/05 11:28:05;;;;;;;;;;;22.30;62.10;;;;;;4849079;29;20714;-80
2023/05/05 11:30:32;;;;;;;;;;;21.90;62.10;;;;;;4853507;29;19936;-80
2023/05/05 11:33:38;;;;;;;;;;;22.10;63.20;;;;;;4834585;29;19936;-79
2023/05/05 11:36:06;;;;;;;;;;;22.10;61.70;;;;;;4836918;29;19956;-79
2023/05/05 11:38:36;;;;;;;;;;;21.90;62.00;;;;;;4817927;29;19959;-79
2023/05/05 11:41:23;;;;;;;;;;;21.70;62.20;;;;;;4845262;29;19928;-78
2023/05/05 11:44:06;;;;;;;;;;;21.40;62.40;;;;;;4831999;29;20018;-79
2023/05/05 11:46:34;;;;;;;;;;;21.30;62.70;;;;;;4847449;29;20438;-80
2023/05/05 11:49:01;;;;;;;;;;;21.90;64.10;;;;;;4860961;29;20046;-79
2023/05/05 11:51:28;;;;;;;;;;;22.20;64.10;;;;;;4861940;29;19938;-79
2023/05/05 11:53:54;;;;;;;;;;;22.00;62.90;;;;;;4864081;29;19951;-79
2023/05/05 11:56:24;;;;;;;;;;;21.30;62.70;;;;;;4862571;29;20054;-80
2023/05/05 11:59:10;;;;;;;;;;;21.30;63.60;;;;;;4873001;29;20015;-78
2023/05/05 12:01:40;;;;;;;;;;;21.70;63.60;;;;;;4867967;29;19934;-79
2023/05/05 12:04:10;;;;;;;;;;;21.80;64.50;;;;;;4854454;29;20024;-79
2023/05/05 12:06:38;;;;;;;;;;;22.00;64.70;;;;;;4867115;29;19936;-79
2023/05/05 12:09:05;;;;;;;;;;;22.30;63.60;;;;;;4855101;29;19928;-79
2023/05/05 12:11:32;;;;;;;;;;;22.20;62.70;;;;;;4846293;29;19936;-77
2023/05/05 12:14:09;;;;;;;;;;;22.20;62.60;;;;;;4846358;29;19935;-79
2023/05/05 12:16:37;;;;;;;;;;;22.30;62.90;;;;;;4876125;29;19967;-79
2023/05/05 12:19:04;;;;;;;;;;;22.30;61.80;;;;;;4877739;29;20681;-78
2023/05/05 12:21:31;;;;;;;;;;;22.40;62.90;;;;;;4874221;29;19943;-79
2023/05/05 12:23:59;;;;;;;;;;;22.40;62.30;;;;;;4863883;29;20388;-79
2023/05/05 12:26:30;;;;;;;;;;;22.40;61.40;;;;;;4875371;29;20018;-79
2023/05/05 12:28:58;;;;;;;;;;;22.40;61.40;;;;;;4869365;29;19938;-78
2023/05/05 12:31:51;;;;;;;;;;;22.50;61.40;;;;;;4862928;29;19935;-79
2023/05/05 12:34:20;;;;;;;;;;;22.70;62.00;;;;;;4864497;29;19936;-79
2023/05/05 12:36:47;;;;;;;;;;;22.90;61.40;;;;;;4855150;29;19939;-79
2023/05/05 12:39:14;;;;;;;;;;;23.10;60.80;;;;;;4924408;23;19943;-79
2023/05/05 12:41:41;;;;;;;;;;;23.10;59.50;;;;;;4857948;29;20011;-78
2023/05/05 12:44:08;;;;;;;;;;;22.70;59.40;;;;;;4857677;29;19943;-78
2023/05/05 12:46:47;;;;;;;;;;;22.70;59.40;;;;;;4852538;29;19943;-78
2023/05/05 12:49:15;;;;;;;;;;;22.60;60.30;;;;;;4851817;29;19936;-79
2023/05/05 12:51:55;;;;;;;;;;;22.60;59.70;;;;;;4861662;29;20022;-79
2023/05/05 12:54:23;;;;;;;;;;;22.80;60.70;;;;;;4846167;29;22729;-79
2023/05/05 12:56:50;;;;;;;;;;;22.80;59.70;;;;;;4840503;29;19988;-79
2023/05/05 12:59:20;;;;;;;;;;;22.70;59.30;;;;;;4836150;29;20516;-79
2023/05/05 13:01:55;;;;;;;;;;;22.80;60.40;;;;;;4844512;29;19940;-78
2023/05/05 13:04:23;;;;;;;;;;;22.80;59.90;;;;;;4851351;29;20395;-79
2023/05/05 13:07:10;;;;;;;;;;;22.80;60.70;;;;;;4852618;29;19934;-78
2023/05/05 13:09:38;;;;;;;;;;;22.80;59.30;;;;;;4836712;29;20404;-79
2023/05/05 13:12:07;;;;;;;;;;;22.80;60.60;;;;;;4854795;29;19928;-79
2023/05/05 13:14:35;;;;;;;;;;;22.70;60.80;;;;;;4850058;29;20018;-79
2023/05/05 13:17:02;;;;;;;;;;;22.60;60.90;;;;;;4849871;29;19936;-79
2023/05/05 13:19:29;;;;;;;;;;;22.70;60.80;;;;;;4862103;29;20035;-78
2023/05/05 13:21:57;;;;;;;;;;;22.90;61.00;;;;;;4847100;29;19935;-78
2023/05/05 13:24:24;;;;;;;;;;;23.20;61.10;;;;;;4856272;29;19928;-80
2023/05/05 13:27:08;;;;;;;;;;;23.30;60.20;;;;;;4863299;29;19936;-79
2023/05/05 13:29:35;;;;;;;;;;;23.30;59.50;;;;;;4846860;29;19928;-79
2023/05/05 13:32:02;;;;;;;;;;;23.30;59.40;;;;;;4847550;29;19931;-79
2023/05/05 13:34:29;;;;;;;;;;;23.30;59.60;;;;;;4842125;29;19928;-79
2023/05/05 13:36:56;;;;;;;;;;;23.10;58.50;;;;;;4862715;29;19931;-79
2023/05/05 13:39:23;;;;;;;;;;;22.90;59.70;;;;;;4848821;29;20418;-80
2023/05/05 13:41:53;;;;;;;;;;;22.90;57.60;;;;;;4849126;29;19944;-79
2023/05/05 13:44:34;;;;;;;;;;;22.60;57.70;;;;;;4863643;29;19943;-79
2023/05/05 13:47:01;;;;;;;;;;;22.60;58.50;;;;;;4853991;29;19936;-80
2023/05/05 13:49:28;;;;;;;;;;;22.60;57.90;;;;;;4858754;29;20374;-80
2023/05/05 13:51:56;;;;;;;;;;;22.60;59.20;;;;;;4863993;29;20389;-79
2023/05/05 13:54:23;;;;;;;;;;;22.80;59.60;;;;;;4853199;29;20018;-80
2023/05/05 13:56:50;;;;;;;;;;;22.90;58.90;;;;;;4870157;29;19936;-80
2023/05/05 13:59:17;;;;;;;;;;;23.00;59.40;;;;;;4867464;29;19951;-80
2023/05/05 14:01:44;;;;;;;;;;;23.10;58.90;;;;;;4851954;29;19928;-80
2023/05/05 14:04:11;;;;;;;;;;;23.30;59.30;;;;;;4852615;29;19988;-79
2023/05/05 14:06:38;;;;;;;;;;;23.20;57.90;;;;;;4850778;29;19928;-80
2023/05/05 14:09:06;;;;;;;;;;;23.30;59.10;;;;;;4856822;29;19928;-80
2023/05/05 14:11:35;;;;;;;;;;;23.00;57.70;;;;;;4858058;29;19991;-80
2023/05/05 14:14:02;;;;;;;;;;;22.90;57.40;;;;;;4858152;29;19940;-80
2023/05/05 14:16:29;;;;;;;;;;;22.50;56.80;;;;;;4853424;29;19928;-80
2023/05/05 14:18:56;;;;;;;;;;;22.50;58.10;;;;;;4853494;29;19980;-80
2023/05/05 14:21:23;;;;;;;;;;;22.60;58.50;;;;;;4857092;29;19936;-80
2023/05/05 14:23:50;;;;;;;;;;;22.50;58.00;;;;;;4862405;29;19978;-80
2023/05/05 14:26:17;;;;;;;;;;;22.40;58.60;;;;;;4868864;29;19935;-80
2023/05/05 14:28:44;;;;;;;;;;;22.50;59.00;;;;;;4859471;29;20427;-80
2023/05/05 14:31:14;;;;;;;;;;;22.60;58.70;;;;;;4850395;29;19931;-80
2023/05/05 14:33:40;;;;;;;;;;;22.60;58.20;;;;;;4866043;29;20420;-80